sensor_id;sensor_type;location;lat;lon;timestamp;temperature;humidity
34726;DHT22;20951;50.818;4.344;2023-04-25T00:01:34;9.40;99.90
34726;DHT22;20951;50.818;4.344;2023-04-25T00:04:03;9.50;99.90
34726;DHT22;20951;50.818;4.344;2023-04-25T00:06:34;9.40;99.90
34726;DHT22;20951;50.818;4.344;2023-04-25T00:09:04;9.40;99.90
34726;DHT22;20951;50.818;4.344;2023-04-25T00:11:33;9.50;99.90
34726;DHT22;20951;50.818;4.344;2023-04-25T00:14:02;9.60;99.90
34726;DHT22;20951;50.818;4.344;2023-04-25T00:16:31;9.70;99.90
34726;DHT22;20951;50.818;4.344;2023-04-25T00:18:59;9.80;99.90
34726;DHT22;20951;50.818;4.344;2023-04-25T00:21:31;9.80;99.90
34726;DHT22;20951;50.818;4.344;2023-04-25T00:24:00;9.90;99.90
34726;DHT22;20951;50.818;4.344;2023-04-25T00:26:28;10.00;99.90
34726;DHT22;20951;50.818;4.344;2023-04-25T00:29:03;10.10;99.90
34726;DHT22;20951;50.818;4.344;2023-04-25T00:31:31;10.10;99.90
34726;DHT22;20951;50.818;4.344;2023-04-25T00:34:00;10.10;99.90
34726;DHT22;20951;50.818;4.344;2023-04-25T00:36:36;10.10;99.90
34726;DHT22;20951;50.818;4.344;2023-04-25T00:39:09;10.20;99.90
34726;DHT22;20951;50.818;4.344;2023-04-25T00:41:35;10.10;99.90
34726;DHT22;20951;50.818;4.344;2023-04-25T00:44:05;10.20;99.90
34726;DHT22;20951;50.818;4.344;2023-04-25T00:46:42;10.10;99.90
34726;DHT22;20951;50.818;4.344;2023-04-25T00:49:13;10.10;99.90
34726;DHT22;20951;50.818;4.344;2023-04-25T00:51:41;10.10;99.90
34726;DHT22;20951;50.818;4.344;2023-04-25T00:54:15;10.00;99.90
34726;DHT22;20951;50.818;4.344;2023-04-25T00:56:45;9.80;99.90
34726;DHT22;20951;50.818;4.344;2023-04-25T00:59:10;9.70;99.90
34726;DHT22;20951;50.818;4.344;2023-04-25T01:01:38;9.80;99.90
34726;DHT22;20951;50.818;4.344;2023-04-25T01:04:15;9.60;99.90
34726;DHT22;20951;50.818;4.344;2023-04-25T01:06:48;9.80;99.90
34726;DHT22;20951;50.818;4.344;2023-04-25T01:09:17;9.90;99.90
34726;DHT22;20951;50.818;4.344;2023-04-25T01:11:49;9.80;99.90
34726;DHT22;20951;50.818;4.344;2023-04-25T01:14:23;9.70;99.90
34726;DHT22;20951;50.818;4.344;2023-04-25T01:16:49;9.70;99.90
34726;DHT22;20951;50.818;4.344;2023-04-25T01:19:26;9.70;99.90
34726;DHT22;20951;50.818;4.344;2023-04-25T01:21:52;9.80;99.90
34726;DHT22;20951;50.818;4.344;2023-04-25T01:24:23;9.70;99.90
34726;DHT22;20951;50.818;4.344;2023-04-25T01:27:01;9.70;99.90
34726;DHT22;20951;50.818;4.344;2023-04-25T01:29:37;9.70;99.90
34726;DHT22;20951;50.818;4.344;2023-04-25T01:32:16;9.70;99.90
34726;DHT22;20951;50.818;4.344;2023-04-25T01:34:48;9.70;99.90
34726;DHT22;20951;50.818;4.344;2023-04-25T01:37:26;9.60;99.90
34726;DHT22;20951;50.818;4.344;2023-04-25T01:39:52;9.60;99.90
34726;DHT22;20951;50.818;4.344;2023-04-25T01:42:30;9.60;99.90
34726;DHT22;20951;50.818;4.344;2023-04-25T01:45:08;9.60;99.90
34726;DHT22;20951;50.818;4.344;2023-04-25T01:47:38;9.50;99.90
34726;DHT22;20951;50.818;4.344;2023-04-25T01:50:17;9.50;99.90
34726;DHT22;20951;50.818;4.344;2023-04-25T01:52:46;9.50;99.90
34726;DHT22;20951;50.818;4.344;2023-04-25T01:55:22;9.50;99.90
34726;DHT22;20951;50.818;4.344;2023-04-25T01:58:00;9.40;99.90
34726;DHT22;20951;50.818;4.344;2023-04-25T02:00:37;9.30;99.90
34726;DHT22;20951;50.818;4.344;2023-04-25T02:03:13;9.20;99.90
34726;DHT22;20951;50.818;4.344;2023-04-25T02:05:43;9.20;99.90
34726;DHT22;20951;50.818;4.344;2023-04-25T02:08:19;9.20;99.90
34726;DHT22;20951;50.818;4.344;2023-04-25T02:10:55;9.20;99.90
34726;DHT22;20951;50.818;4.344;2023-04-25T02:13:32;9.10;99.90
34726;DHT22;20951;50.818;4.344;2023-04-25T02:15:58;9.00;99.90
34726;DHT22;20951;50.818;4.344;2023-04-25T02:18:23;9.00;99.90
34726;DHT22;20951;50.818;4.344;2023-04-25T02:20:55;9.10;99.90
34726;DHT22;20951;50.818;4.344;2023-04-25T02:23:21;9.10;99.90
34726;DHT22;20951;50.818;4.344;2023-04-25T02:25:47;9.20;99.90
34726;DHT22;20951;50.818;4.344;2023-04-25T02:28:13;9.10;99.90
34726;DHT22;20951;50.818;4.344;2023-04-25T02:30:44;9.20;99.90
34726;DHT22;20951;50.818;4.344;2023-04-25T02:33:10;9.20;99.90
34726;DHT22;20951;50.818;4.344;2023-04-25T02:35:46;9.20;99.90
34726;DHT22;20951;50.818;4.344;2023-04-25T02:38:18;9.20;99.90
34726;DHT22;20951;50.818;4.344;2023-04-25T02:40:46;9.20;99.90
34726;DHT22;20951;50.818;4.344;2023-04-25T02:43:12;9.30;99.90
34726;DHT22;20951;50.818;4.344;2023-04-25T02:45:41;9.30;99.90
34726;DHT22;20951;50.818;4.344;2023-04-25T02:48:17;9.40;99.90
34726;DHT22;20951;50.818;4.344;2023-04-25T02:50:46;9.30;99.90
34726;DHT22;20951;50.818;4.344;2023-04-25T02:53:12;9.50;99.90
34726;DHT22;20951;50.818;4.344;2023-04-25T02:55:47;9.50;99.90
34726;DHT22;20951;50.818;4.344;2023-04-25T02:58:15;9.30;99.90
34726;DHT22;20951;50.818;4.344;2023-04-25T03:00:46;9.30;99.90
34726;DHT22;20951;50.818;4.344;2023-04-25T03:03:14;9.20;99.90
34726;DHT22;20951;50.818;4.344;2023-04-25T03:05:44;9.10;99.90
34726;DHT22;20951;50.818;4.344;2023-04-25T03:08:26;9.10;99.90
34726;DHT22;20951;50.818;4.344;2023-04-25T03:11:02;9.20;99.90
34726;DHT22;20951;50.818;4.344;2023-04-25T03:13:31;9.10;99.90
34726;DHT22;20951;50.818;4.344;2023-04-25T03:16:06;9.00;99.90
34726;DHT22;20951;50.818;4.344;2023-04-25T03:18:48;9.00;99.90
34726;DHT22;20951;50.818;4.344;2023-04-25T03:21:21;8.80;99.90
34726;DHT22;20951;50.818;4.344;2023-04-25T03:23:57;8.80;99.90
34726;DHT22;20951;50.818;4.344;2023-04-25T03:26:36;8.80;99.90
34726;DHT22;20951;50.818;4.344;2023-04-25T03:29:06;8.70;99.90
34726;DHT22;20951;50.818;4.344;2023-04-25T03:31:42;8.80;99.90
34726;DHT22;20951;50.818;4.344;2023-04-25T03:34:11;8.80;99.90
34726;DHT22;20951;50.818;4.344;2023-04-25T03:36:50;8.80;99.90
34726;DHT22;20951;50.818;4.344;2023-04-25T03:39:29;8.70;99.90
34726;DHT22;20951;50.818;4.344;2023-04-25T03:42:05;8.70;99.90
34726;DHT22;20951;50.818;4.344;2023-04-25T03:44:39;8.80;99.90
34726;DHT22;20951;50.818;4.344;2023-04-25T03:47:20;8.70;99.90
34726;DHT22;20951;50.818;4.344;2023-04-25T03:49:58;8.60;99.90
34726;DHT22;20951;50.818;4.344;2023-04-25T03:52:29;8.60;99.90
34726;DHT22;20951;50.818;4.344;2023-04-25T03:55:00;8.70;99.90
34726;DHT22;20951;50.818;4.344;2023-04-25T03:57:35;8.70;99.90
34726;DHT22;20951;50.818;4.344;2023-04-25T04:00:27;8.70;99.90
34726;DHT22;20951;50.818;4.344;2023-04-25T04:03:01;8.70;99.90
34726;DHT22;20951;50.818;4.344;2023-04-25T04:05:40;8.70;99.90
34726;DHT22;20951;50.818;4.344;2023-04-25T04:08:12;8.60;99.90
34726;DHT22;20951;50.818;4.344;2023-04-25T04:10:38;8.50;99.90
34726;DHT22;20951;50.818;4.344;2023-04-25T04:13:20;8.60;99.90
34726;DHT22;20951;50.818;4.344;2023-04-25T04:15:46;8.70;99.90
34726;DHT22;20951;50.818;4.344;2023-04-25T04:18:23;8.60;99.90
34726;DHT22;20951;50.818;4.344;2023-04-25T04:20:55;8.60;99.90
34726;DHT22;20951;50.818;4.344;2023-04-25T04:23:41;8.70;99.90
34726;DHT22;20951;50.818;4.344;2023-04-25T04:26:25;8.80;99.90
34726;DHT22;20951;50.818;4.344;2023-04-25T04:28:52;8.70;99.90
34726;DHT22;20951;50.818;4.344;2023-04-25T04:31:24;8.70;99.90
34726;DHT22;20951;50.818;4.344;2023-04-25T04:33:58;8.70;99.90
34726;DHT22;20951;50.818;4.344;2023-04-25T04:36:34;8.80;99.90
34726;DHT22;20951;50.818;4.344;2023-04-25T04:39:00;8.80;99.90
34726;DHT22;20951;50.818;4.344;2023-04-25T04:41:29;8.90;99.90
34726;DHT22;20951;50.818;4.344;2023-04-25T04:44:12;8.90;99.90
34726;DHT22;20951;50.818;4.344;2023-04-25T04:46:46;9.00;99.90
34726;DHT22;20951;50.818;4.344;2023-04-25T04:52:19;8.70;99.90
34726;DHT22;20951;50.818;4.344;2023-04-25T04:54:58;8.60;99.90
34726;DHT22;20951;50.818;4.344;2023-04-25T04:57:32;8.50;99.90
34726;DHT22;20951;50.818;4.344;2023-04-25T05:00:16;8.60;99.90
34726;DHT22;20951;50.818;4.344;2023-04-25T05:02:52;8.50;99.90
34726;DHT22;20951;50.818;4.344;2023-04-25T05:05:29;8.50;99.90
34726;DHT22;20951;50.818;4.344;2023-04-25T05:08:06;8.30;99.90
34726;DHT22;20951;50.818;4.344;2023-04-25T05:10:39;8.30;99.90
34726;DHT22;20951;50.818;4.344;2023-04-25T05:13:57;8.30;99.90
34726;DHT22;20951;50.818;4.344;2023-04-25T05:16:42;8.30;99.90
34726;DHT22;20951;50.818;4.344;2023-04-25T05:19:19;8.30;99.90
34726;DHT22;20951;50.818;4.344;2023-04-25T05:22:03;8.30;99.90
34726;DHT22;20951;50.818;4.344;2023-04-25T05:24:47;8.40;99.90
34726;DHT22;20951;50.818;4.344;2023-04-25T05:27:28;8.50;99.90
34726;DHT22;20951;50.818;4.344;2023-04-25T05:30:08;8.50;99.90
34726;DHT22;20951;50.818;4.344;2023-04-25T05:32:53;8.50;99.90
34726;DHT22;20951;50.818;4.344;2023-04-25T05:35:30;8.50;99.90
34726;DHT22;20951;50.818;4.344;2023-04-25T05:38:14;8.50;99.90
34726;DHT22;20951;50.818;4.344;2023-04-25T05:41:00;8.60;99.90
34726;DHT22;20951;50.818;4.344;2023-04-25T05:43:39;8.70;99.90
34726;DHT22;20951;50.818;4.344;2023-04-25T05:46:23;8.80;99.90
34726;DHT22;20951;50.818;4.344;2023-04-25T05:49:05;8.80;99.90
34726;DHT22;20951;50.818;4.344;2023-04-25T05:51:50;8.80;99.90
34726;DHT22;20951;50.818;4.344;2023-04-25T05:54:29;8.90;99.90
34726;DHT22;20951;50.818;4.344;2023-04-25T05:57:26;8.90;99.90
34726;DHT22;20951;50.818;4.344;2023-04-25T06:00:07;8.90;99.90
34726;DHT22;20951;50.818;4.344;2023-04-25T06:02:48;9.00;99.90
34726;DHT22;20951;50.818;4.344;2023-04-25T06:05:30;9.00;99.90
34726;DHT22;20951;50.818;4.344;2023-04-25T06:08:11;9.00;99.90
34726;DHT22;20951;50.818;4.344;2023-04-25T06:10:52;9.10;99.90
34726;DHT22;20951;50.818;4.344;2023-04-25T06:13:35;9.10;99.90
34726;DHT22;20951;50.818;4.344;2023-04-25T06:16:18;9.30;99.90
34726;DHT22;20951;50.818;4.344;2023-04-25T06:18:55;9.20;99.90
34726;DHT22;20951;50.818;4.344;2023-04-25T06:21:28;9.20;99.90
34726;DHT22;20951;50.818;4.344;2023-04-25T06:24:00;9.30;99.90
34726;DHT22;20951;50.818;4.344;2023-04-25T06:26:31;9.40;99.90
34726;DHT22;20951;50.818;4.344;2023-04-25T06:29:04;9.30;99.90
34726;DHT22;20951;50.818;4.344;2023-04-25T06:31:36;9.40;99.90
34726;DHT22;20951;50.818;4.344;2023-04-25T06:34:07;9.40;99.90
34726;DHT22;20951;50.818;4.344;2023-04-25T06:36:38;9.20;99.90
34726;DHT22;20951;50.818;4.344;2023-04-25T06:39:10;9.10;99.90
34726;DHT22;20951;50.818;4.344;2023-04-25T06:41:41;9.00;99.90
34726;DHT22;20951;50.818;4.344;2023-04-25T06:44:13;8.80;99.90
34726;DHT22;20951;50.818;4.344;2023-04-25T06:46:44;8.70;99.90
34726;DHT22;20951;50.818;4.344;2023-04-25T06:49:16;8.60;99.90
34726;DHT22;20951;50.818;4.344;2023-04-25T06:51:48;8.60;99.90
34726;DHT22;20951;50.818;4.344;2023-04-25T06:54:20;8.60;99.90
34726;DHT22;20951;50.818;4.344;2023-04-25T06:56:52;8.70;99.90
34726;DHT22;20951;50.818;4.344;2023-04-25T06:59:23;8.80;99.90
34726;DHT22;20951;50.818;4.344;2023-04-25T07:01:59;8.80;99.90
34726;DHT22;20951;50.818;4.344;2023-04-25T07:04:29;8.80;99.90
34726;DHT22;20951;50.818;4.344;2023-04-25T07:06:56;8.90;99.90
34726;DHT22;20951;50.818;4.344;2023-04-25T07:09:22;9.00;99.90
34726;DHT22;20951;50.818;4.344;2023-04-25T07:11:51;9.20;99.90
34726;DHT22;20951;50.818;4.344;2023-04-25T07:14:17;9.20;99.90
34726;DHT22;20951;50.818;4.344;2023-04-25T07:16:43;9.10;99.90
34726;DHT22;20951;50.818;4.344;2023-04-25T07:19:09;9.20;99.90
34726;DHT22;20951;50.818;4.344;2023-04-25T07:21:35;9.00;99.90
34726;DHT22;20951;50.818;4.344;2023-04-25T07:24:02;8.90;99.90
34726;DHT22;20951;50.818;4.344;2023-04-25T07:26:27;8.80;99.90
34726;DHT22;20951;50.818;4.344;2023-04-25T07:28:53;8.90;99.90
34726;DHT22;20951;50.818;4.344;2023-04-25T07:31:20;8.90;99.90
34726;DHT22;20951;50.818;4.344;2023-04-25T07:33:47;9.10;99.90
34726;DHT22;20951;50.818;4.344;2023-04-25T07:36:15;9.10;99.90
34726;DHT22;20951;50.818;4.344;2023-04-25T07:38:42;8.90;99.90
34726;DHT22;20951;50.818;4.344;2023-04-25T07:41:08;9.00;99.90
34726;DHT22;20951;50.818;4.344;2023-04-25T07:43:34;9.10;99.90
34726;DHT22;20951;50.818;4.344;2023-04-25T07:46:00;9.10;99.90
34726;DHT22;20951;50.818;4.344;2023-04-25T07:48:26;9.10;99.90
34726;DHT22;20951;50.818;4.344;2023-04-25T07:50:54;9.20;99.90
34726;DHT22;20951;50.818;4.344;2023-04-25T07:53:27;9.40;99.90
34726;DHT22;20951;50.818;4.344;2023-04-25T07:56:03;9.50;99.90
34726;DHT22;20951;50.818;4.344;2023-04-25T07:58:34;9.60;99.90
34726;DHT22;20951;50.818;4.344;2023-04-25T08:01:06;9.80;99.90
34726;DHT22;20951;50.818;4.344;2023-04-25T08:03:37;10.10;99.90
34726;DHT22;20951;50.818;4.344;2023-04-25T08:06:09;10.20;99.90
34726;DHT22;20951;50.818;4.344;2023-04-25T08:08:40;10.20;99.90
34726;DHT22;20951;50.818;4.344;2023-04-25T08:11:11;10.20;99.90
34726;DHT22;20951;50.818;4.344;2023-04-25T08:13:42;10.20;99.90
34726;DHT22;20951;50.818;4.344;2023-04-25T08:16:14;10.20;99.90
34726;DHT22;20951;50.818;4.344;2023-04-25T08:18:45;10.30;99.90
34726;DHT22;20951;50.818;4.344;2023-04-25T08:21:16;10.40;99.90
34726;DHT22;20951;50.818;4.344;2023-04-25T08:23:47;10.50;99.90
34726;DHT22;20951;50.818;4.344;2023-04-25T08:26:18;10.60;99.90
34726;DHT22;20951;50.818;4.344;2023-04-25T08:28:49;10.80;99.90
34726;DHT22;20951;50.818;4.344;2023-04-25T08:31:20;11.00;99.90
34726;DHT22;20951;50.818;4.344;2023-04-25T08:33:50;10.90;99.90
34726;DHT22;20951;50.818;4.344;2023-04-25T08:36:21;10.60;99.90
34726;DHT22;20951;50.818;4.344;2023-04-25T08:38:51;10.70;99.90
34726;DHT22;20951;50.818;4.344;2023-04-25T08:41:22;10.60;99.90
34726;DHT22;20951;50.818;4.344;2023-04-25T08:43:53;10.70;99.90
34726;DHT22;20951;50.818;4.344;2023-04-25T08:46:27;12.50;99.90
34726;DHT22;20951;50.818;4.344;2023-04-25T08:49:04;14.20;99.90
34726;DHT22;20951;50.818;4.344;2023-04-25T08:51:42;14.60;99.90
34726;DHT22;20951;50.818;4.344;2023-04-25T08:54:14;14.10;99.90
34726;DHT22;20951;50.818;4.344;2023-04-25T08:56:45;14.80;99.90
34726;DHT22;20951;50.818;4.344;2023-04-25T08:59:14;15.80;99.90
34726;DHT22;20951;50.818;4.344;2023-04-25T09:01:43;16.80;99.90
34726;DHT22;20951;50.818;4.344;2023-04-25T09:04:12;17.40;99.90
34726;DHT22;20951;50.818;4.344;2023-04-25T09:06:38;17.50;99.20
34726;DHT22;20951;50.818;4.344;2023-04-25T09:09:06;17.40;99.70
34726;DHT22;20951;50.818;4.344;2023-04-25T09:11:35;17.00;99.90
34726;DHT22;20951;50.818;4.344;2023-04-25T09:14:16;15.40;99.90
34726;DHT22;20951;50.818;4.344;2023-04-25T09:17:02;13.80;99.90
34726;DHT22;20951;50.818;4.344;2023-04-25T09:19:30;12.70;99.90
34726;DHT22;20951;50.818;4.344;2023-04-25T09:21:58;12.40;99.90
34726;DHT22;20951;50.818;4.344;2023-04-25T09:24:40;12.30;99.90
34726;DHT22;20951;50.818;4.344;2023-04-25T09:27:15;12.10;99.90
34726;DHT22;20951;50.818;4.344;2023-04-25T09:29:44;11.70;99.90
34726;DHT22;20951;50.818;4.344;2023-04-25T09:32:21;11.40;99.90
34726;DHT22;20951;50.818;4.344;2023-04-25T09:34:57;11.10;99.90
34726;DHT22;20951;50.818;4.344;2023-04-25T09:37:29;10.70;99.90
34726;DHT22;20951;50.818;4.344;2023-04-25T09:40:05;10.70;99.90
34726;DHT22;20951;50.818;4.344;2023-04-25T09:42:32;11.00;99.90
34726;DHT22;20951;50.818;4.344;2023-04-25T09:45:04;10.80;99.90
34726;DHT22;20951;50.818;4.344;2023-04-25T09:47:30;10.60;99.90
34726;DHT22;20951;50.818;4.344;2023-04-25T09:49:56;10.50;99.90
34726;DHT22;20951;50.818;4.344;2023-04-25T09:52:24;10.70;99.90
34726;DHT22;20951;50.818;4.344;2023-04-25T09:54:51;11.10;99.90
34726;DHT22;20951;50.818;4.344;2023-04-25T09:57:19;11.40;99.90
34726;DHT22;20951;50.818;4.344;2023-04-25T09:59:47;12.10;99.90
34726;DHT22;20951;50.818;4.344;2023-04-25T10:02:15;13.40;99.90
34726;DHT22;20951;50.818;4.344;2023-04-25T10:04:42;14.20;99.90
34726;DHT22;20951;50.818;4.344;2023-04-25T10:07:11;15.80;99.90
34726;DHT22;20951;50.818;4.344;2023-04-25T10:09:38;18.50;99.90
34726;DHT22;20951;50.818;4.344;2023-04-25T10:12:06;19.30;95.40
34726;DHT22;20951;50.818;4.344;2023-04-25T10:14:42;17.20;96.60
34726;DHT22;20951;50.818;4.344;2023-04-25T10:17:10;15.10;98.40
34726;DHT22;20951;50.818;4.344;2023-04-25T10:19:40;14.40;99.90
34726;DHT22;20951;50.818;4.344;2023-04-25T10:24:55;17.90;97.90
34726;DHT22;20951;50.818;4.344;2023-04-25T10:27:22;17.50;94.00
34726;DHT22;20951;50.818;4.344;2023-04-25T10:30:08;16.50;94.10
34726;DHT22;20951;50.818;4.344;2023-04-25T10:32:36;16.20;93.70
34726;DHT22;20951;50.818;4.344;2023-04-25T10:35:17;16.70;92.80
34726;DHT22;20951;50.818;4.344;2023-04-25T10:38:14;17.40;92.50
34726;DHT22;20951;50.818;4.344;2023-04-25T10:40:40;18.40;91.70
34726;DHT22;20951;50.818;4.344;2023-04-25T10:45:59;21.10;84.40
34726;DHT22;20951;50.818;4.344;2023-04-25T10:48:31;19.30;83.80
34726;DHT22;20951;50.818;4.344;2023-04-25T10:51:10;17.50;89.30
34726;DHT22;20951;50.818;4.344;2023-04-25T10:53:37;15.60;91.20
34726;DHT22;20951;50.818;4.344;2023-04-25T10:56:16;14.60;92.90
34726;DHT22;20951;50.818;4.344;2023-04-25T10:58:45;14.20;94.30
34726;DHT22;20951;50.818;4.344;2023-04-25T11:01:20;13.70;96.10
34726;DHT22;20951;50.818;4.344;2023-04-25T11:03:47;13.40;99.00
34726;DHT22;20951;50.818;4.344;2023-04-25T11:06:34;13.00;99.90
34726;DHT22;20951;50.818;4.344;2023-04-25T11:09:10;12.80;99.90
34726;DHT22;20951;50.818;4.344;2023-04-25T11:11:38;12.20;99.90
34726;DHT22;20951;50.818;4.344;2023-04-25T11:14:05;11.70;99.90
34726;DHT22;20951;50.818;4.344;2023-04-25T11:16:31;11.40;99.90
34726;DHT22;20951;50.818;4.344;2023-04-25T11:18:58;11.20;99.90
34726;DHT22;20951;50.818;4.344;2023-04-25T11:21:25;11.20;99.90
34726;DHT22;20951;50.818;4.344;2023-04-25T11:23:56;11.40;99.90
34726;DHT22;20951;50.818;4.344;2023-04-25T11:26:22;11.30;99.90
34726;DHT22;20951;50.818;4.344;2023-04-25T11:28:49;11.30;99.90
34726;DHT22;20951;50.818;4.344;2023-04-25T11:31:20;11.40;99.90
34726;DHT22;20951;50.818;4.344;2023-04-25T11:33:47;11.70;99.90
34726;DHT22;20951;50.818;4.344;2023-04-25T11:36:14;12.10;99.90
34726;DHT22;20951;50.818;4.344;2023-04-25T11:38:39;12.50;99.90
34726;DHT22;20951;50.818;4.344;2023-04-25T11:41:06;12.80;99.90
34726;DHT22;20951;50.818;4.344;2023-04-25T11:43:31;12.50;99.90
34726;DHT22;20951;50.818;4.344;2023-04-25T11:45:57;12.70;99.90
34726;DHT22;20951;50.818;4.344;2023-04-25T11:48:24;12.60;99.90
34726;DHT22;20951;50.818;4.344;2023-04-25T11:50:50;12.40;99.90
34726;DHT22;20951;50.818;4.344;2023-04-25T11:53:17;11.90;99.90
34726;DHT22;20951;50.818;4.344;2023-04-25T11:55:43;11.60;99.90
34726;DHT22;20951;50.818;4.344;2023-04-25T11:58:10;11.50;99.90
34726;DHT22;20951;50.818;4.344;2023-04-25T12:00:36;11.60;99.90
34726;DHT22;20951;50.818;4.344;2023-04-25T12:03:02;11.80;99.90
34726;DHT22;20951;50.818;4.344;2023-04-25T12:05:30;12.30;99.90
34726;DHT22;20951;50.818;4.344;2023-04-25T12:08:10;13.60;99.90
34726;DHT22;20951;50.818;4.344;2023-04-25T12:10:39;14.80;99.70
34726;DHT22;20951;50.818;4.344;2023-04-25T12:13:25;14.60;99.70
34726;DHT22;20951;50.818;4.344;2023-04-25T12:15:56;14.60;99.90
34726;DHT22;20951;50.818;4.344;2023-04-25T12:18:26;14.50;99.90
34726;DHT22;20951;50.818;4.344;2023-04-25T12:20:56;13.90;99.90
34726;DHT22;20951;50.818;4.344;2023-04-25T12:23:28;13.60;99.90
34726;DHT22;20951;50.818;4.344;2023-04-25T12:25:55;13.90;99.90
34726;DHT22;20951;50.818;4.344;2023-04-25T12:28:23;14.10;99.90
34726;DHT22;20951;50.818;4.344;2023-04-25T12:30:53;14.60;99.90
34726;DHT22;20951;50.818;4.344;2023-04-25T12:33:19;14.20;99.90
34726;DHT22;20951;50.818;4.344;2023-04-25T12:35:45;13.60;99.90
34726;DHT22;20951;50.818;4.344;2023-04-25T12:38:11;13.10;99.90
34726;DHT22;20951;50.818;4.344;2023-04-25T12:40:49;12.60;99.90
34726;DHT22;20951;50.818;4.344;2023-04-25T12:43:18;12.60;99.90
34726;DHT22;20951;50.818;4.344;2023-04-25T12:45:48;12.80;99.90
34726;DHT22;20951;50.818;4.344;2023-04-25T12:48:15;13.10;99.90
34726;DHT22;20951;50.818;4.344;2023-04-25T12:50:41;14.40;99.30
34726;DHT22;20951;50.818;4.344;2023-04-25T12:53:07;16.60;97.30
34726;DHT22;20951;50.818;4.344;2023-04-25T12:55:33;18.30;92.40
34726;DHT22;20951;50.818;4.344;2023-04-25T12:57:59;18.50;91.30
34726;DHT22;20951;50.818;4.344;2023-04-25T13:00:25;18.40;91.20
34726;DHT22;20951;50.818;4.344;2023-04-25T13:02:52;18.50;91.20
34726;DHT22;20951;50.818;4.344;2023-04-25T13:05:18;16.80;92.40
34726;DHT22;20951;50.818;4.344;2023-04-25T13:07:44;16.20;94.30
34726;DHT22;20951;50.818;4.344;2023-04-25T13:10:13;17.00;93.10
34726;DHT22;20951;50.818;4.344;2023-04-25T13:12:38;17.30;92.20
34726;DHT22;20951;50.818;4.344;2023-04-25T13:15:05;16.60;93.70
34726;DHT22;20951;50.818;4.344;2023-04-25T13:17:35;15.90;94.50
34726;DHT22;20951;50.818;4.344;2023-04-25T13:20:01;15.10;95.70
34726;DHT22;20951;50.818;4.344;2023-04-25T13:22:27;15.00;96.00
34726;DHT22;20951;50.818;4.344;2023-04-25T13:24:53;15.20;95.40
34726;DHT22;20951;50.818;4.344;2023-04-25T13:27:19;15.30;95.30
34726;DHT22;20951;50.818;4.344;2023-04-25T13:29:45;15.20;94.70
34726;DHT22;20951;50.818;4.344;2023-04-25T13:32:11;15.00;95.50
34726;DHT22;20951;50.818;4.344;2023-04-25T13:34:37;15.10;95.00
34726;DHT22;20951;50.818;4.344;2023-04-25T13:37:04;15.30;94.40
34726;DHT22;20951;50.818;4.344;2023-04-25T13:39:30;15.40;94.20
34726;DHT22;20951;50.818;4.344;2023-04-25T13:41:56;16.20;92.90
34726;DHT22;20951;50.818;4.344;2023-04-25T13:44:22;17.80;91.60
34726;DHT22;20951;50.818;4.344;2023-04-25T13:46:48;19.70;87.70
34726;DHT22;20951;50.818;4.344;2023-04-25T13:49:14;19.70;81.50
34726;DHT22;20951;50.818;4.344;2023-04-25T13:51:43;19.00;81.50
34726;DHT22;20951;50.818;4.344;2023-04-25T13:54:09;18.60;82.70
34726;DHT22;20951;50.818;4.344;2023-04-25T13:56:35;18.40;81.90
34726;DHT22;20951;50.818;4.344;2023-04-25T13:59:01;18.10;84.30
34726;DHT22;20951;50.818;4.344;2023-04-25T14:01:27;18.20;85.90
34726;DHT22;20951;50.818;4.344;2023-04-25T14:03:54;16.50;90.00
34726;DHT22;20951;50.818;4.344;2023-04-25T14:06:20;15.20;92.90
34726;DHT22;20951;50.818;4.344;2023-04-25T14:08:50;14.20;95.40
34726;DHT22;20951;50.818;4.344;2023-04-25T14:11:16;14.50;96.20
34726;DHT22;20951;50.818;4.344;2023-04-25T14:13:44;15.50;94.90
34726;DHT22;20951;50.818;4.344;2023-04-25T14:16:10;16.90;92.90
34726;DHT22;20951;50.818;4.344;2023-04-25T14:18:36;18.30;91.00
34726;DHT22;20951;50.818;4.344;2023-04-25T14:21:01;19.20;88.80
34726;DHT22;20951;50.818;4.344;2023-04-25T14:23:30;18.00;87.10
34726;DHT22;20951;50.818;4.344;2023-04-25T14:25:57;16.20;88.90
34726;DHT22;20951;50.818;4.344;2023-04-25T14:28:23;15.10;91.80
34726;DHT22;20951;50.818;4.344;2023-04-25T14:30:49;14.60;92.40
34726;DHT22;20951;50.818;4.344;2023-04-25T14:33:15;14.40;93.30
34726;DHT22;20951;50.818;4.344;2023-04-25T14:35:41;14.00;93.70
34726;DHT22;20951;50.818;4.344;2023-04-25T14:38:07;13.60;93.90
34726;DHT22;20951;50.818;4.344;2023-04-25T14:40:33;13.20;94.80
34726;DHT22;20951;50.818;4.344;2023-04-25T14:42:59;13.30;95.00
34726;DHT22;20951;50.818;4.344;2023-04-25T14:45:25;13.30;95.30
34726;DHT22;20951;50.818;4.344;2023-04-25T14:47:51;13.20;95.10
34726;DHT22;20951;50.818;4.344;2023-04-25T14:50:17;13.40;95.80
34726;DHT22;20951;50.818;4.344;2023-04-25T14:52:43;13.40;96.00
34726;DHT22;20951;50.818;4.344;2023-04-25T14:55:10;13.20;96.10
34726;DHT22;20951;50.818;4.344;2023-04-25T14:57:37;13.40;96.20
34726;DHT22;20951;50.818;4.344;2023-04-25T15:00:05;13.70;96.30
34726;DHT22;20951;50.818;4.344;2023-04-25T15:02:36;13.60;96.70
34726;DHT22;20951;50.818;4.344;2023-04-25T15:05:02;13.20;97.70
34726;DHT22;20951;50.818;4.344;2023-04-25T15:07:28;13.30;97.70
34726;DHT22;20951;50.818;4.344;2023-04-25T15:09:55;13.20;97.10
34726;DHT22;20951;50.818;4.344;2023-04-25T15:12:22;13.10;97.70
34726;DHT22;20951;50.818;4.344;2023-04-25T15:14:48;13.00;96.70
34726;DHT22;20951;50.818;4.344;2023-04-25T15:17:16;12.70;97.60
34726;DHT22;20951;50.818;4.344;2023-04-25T15:19:45;12.60;97.60
34726;DHT22;20951;50.818;4.344;2023-04-25T15:22:11;12.60;98.30
34726;DHT22;20951;50.818;4.344;2023-04-25T15:24:37;12.50;97.50
34726;DHT22;20951;50.818;4.344;2023-04-25T15:27:03;12.70;97.40
34726;DHT22;20951;50.818;4.344;2023-04-25T15:29:30;13.10;97.20
34726;DHT22;20951;50.818;4.344;2023-04-25T15:31:56;12.80;97.40
34726;DHT22;20951;50.818;4.344;2023-04-25T15:34:22;12.70;97.90
34726;DHT22;20951;50.818;4.344;2023-04-25T15:36:48;12.30;98.10
34726;DHT22;20951;50.818;4.344;2023-04-25T15:39:14;12.00;98.90
34726;DHT22;20951;50.818;4.344;2023-04-25T15:41:41;11.80;99.60
34726;DHT22;20951;50.818;4.344;2023-04-25T15:44:07;11.90;99.90
34726;DHT22;20951;50.818;4.344;2023-04-25T15:46:35;12.00;99.50
34726;DHT22;20951;50.818;4.344;2023-04-25T15:49:01;11.80;98.90
34726;DHT22;20951;50.818;4.344;2023-04-25T15:51:28;11.70;99.20
34726;DHT22;20951;50.818;4.344;2023-04-25T15:53:54;11.60;99.90
34726;DHT22;20951;50.818;4.344;2023-04-25T15:56:21;11.60;99.90
34726;DHT22;20951;50.818;4.344;2023-04-25T15:58:47;11.40;99.90
34726;DHT22;20951;50.818;4.344;2023-04-25T16:01:13;11.20;99.90
34726;DHT22;20951;50.818;4.344;2023-04-25T16:03:40;11.20;99.90
34726;DHT22;20951;50.818;4.344;2023-04-25T16:06:06;11.20;99.90
34726;DHT22;20951;50.818;4.344;2023-04-25T16:08:32;11.20;99.90
34726;DHT22;20951;50.818;4.344;2023-04-25T16:11:00;11.10;99.90